Time,TemperatureF,DewpointF,PressureIn,WindDirection,WindDirectionDegrees,WindSpeedMPH,WindSpeedGustMPH,Humidity,HourlyPrecipIn,Conditions,Clouds,dailyrainin,SoftwareType,DateUTC
2013-08-06 00:33:00,65.0,63.0,-100.00,ESE,105,6.0,7.0,92,-99.99,,,-99.99,,2013-08-06 04:33:00,
2013-08-06 01:02:00,65.0,63.0,-100.00,SE,140,6.0,9.0,92,-99.99,,,-99.99,,2013-08-06 05:02:00,
2013-08-06 01:32:00,65.0,63.0,-100.00,SE,130,6.0,9.0,92,-99.99,,,-99.99,,2013-08-06 05:32:00,
2013-08-06 02:02:00,65.0,63.0,-100.00,SE,140,4.0,7.0,92,-99.99,,,-99.99,,2013-08-06 06:02:00,
2013-08-06 02:32:00,66.0,63.0,-100.00,SSE,160,6.0,7.0,92,-99.99,,,-99.99,,2013-08-06 06:32:00,
2013-08-06 03:01:00,66.0,63.0,-100.00,SSE,150,5.0,7.0,91,-99.99,,,-99.99,,2013-08-06 07:01:00,
2013-08-06 03:32:00,66.0,63.0,-100.00,SSE,160,4.0,5.0,91,-99.99,,,-99.99,,2013-08-06 07:32:00,
2013-08-06 03:33:00,67.0,64.0,-100.00,SE,140,4.0,4.0,90,-99.99,,,-99.99,,2013-08-06 07:33:00,
2013-08-06 04:02:00,66.0,63.0,-100.00,SSE,150,2.0,4.0,91,-99.99,,,-99.99,,2013-08-06 08:02:00,
2013-08-06 05:01:00,66.0,63.0,-100.00,SE,135,2.0,4.0,91,-99.99,,,-99.99,,2013-08-06 09:01:00,
2013-08-06 05:32:00,66.0,63.0,-100.00,SSE,160,6.0,7.0,91,-99.99,,,-99.99,,2013-08-06 09:32:00,
2013-08-06 06:02:00,67.0,64.0,-100.00,South,175,7.0,10.0,92,-99.99,,,-99.99,,2013-08-06 10:02:00,
2013-08-06 06:32:00,67.0,64.0,-100.00,South,185,6.0,7.0,92,-99.99,,,-99.99,,2013-08-06 10:32:00,
2013-08-06 07:02:00,68.0,65.0,-100.00,SSW,205,6.0,10.0,91,-99.99,,,-99.99,,2013-08-06 11:02:00,
2013-08-06 08:02:00,69.0,66.0,-100.00,SSW,205,8.0,11.0,91,-99.99,,,-99.99,,2013-08-06 12:02:00,
2013-08-06 10:01:00,69.0,66.0,-100.00,South,180,3.0,4.0,91,-99.99,,,-99.99,,2013-08-06 14:01:00,
2013-08-06 10:32:00,69.0,67.0,-100.00,South,190,1.0,4.0,91,-99.99,,,-99.99,,2013-08-06 14:32:00,
2013-08-06 13:02:00,72.0,68.0,-100.00,SSW,200,6.0,10.0,87,-99.99,,,-99.99,,2013-08-06 17:02:00,
2013-08-06 13:32:00,75.0,69.0,-100.00,WSW,250,3.0,6.0,81,-99.99,,,-99.99,,2013-08-06 17:32:00,
2013-08-06 18:01:00,80.0,71.0,-100.00,SSE,155,7.0,10.0,74,-99.99,,,-99.99,,2013-08-06 22:01:00,
2013-08-06 18:02:00,78.0,71.0,-100.00,SSE,165,6.0,10.0,79,-99.99,,,-99.99,,2013-08-06 22:02:00,
2013-08-06 18:31:00,80.0,71.0,-100.00,South,180,4.0,9.0,75,-99.99,,,-99.99,,2013-08-06 22:31:00,
2013-08-06 18:32:00,80.0,71.0,-100.00,South,185,6.0,9.0,74,-99.99,,,-99.99,,2013-08-06 22:32:00,
2013-08-06 19:32:00,76.0,72.0,-100.00,South,185,5.0,6.0,85,-99.99,,,-99.99,,2013-08-06 23:32:00,
2013-08-06 20:01:00,77.0,72.0,-100.00,South,175,5.0,7.0,83,-99.99,,,-99.99,,2013-08-07 00:01:00,
2013-08-06 21:33:00,72.0,70.0,-100.00,South,180,6.0,8.0,92,-99.99,,,-99.99,,2013-08-07 01:33:00,
2013-08-06 23:32:00,72.0,70.0,-100.00,SE,140,1.0,2.0,93,-99.99,,,-99.99,,2013-08-07 03:32:00,